地図

経路データ

SID SEASON NUMBER BASIN SUBBASIN NAME ISO_TIME NATURE LAT LON WMO_WIND WMO_PRES WMO_AGENCY TRACK_TYPE DIST2LAND LANDFALL IFLAG USA_AGENCY USA_ATCF_ID USA_LAT USA_LON USA_RECORD USA_STATUS USA_WIND USA_PRES USA_SSHS USA_R34_NE USA_R34_SE USA_R34_SW USA_R34_NW USA_R50_NE USA_R50_SE USA_R50_SW USA_R50_NW USA_R64_NE USA_R64_SE USA_R64_SW USA_R64_NW USA_POCI USA_ROCI USA_RMW USA_EYE TOKYO_LAT TOKYO_LON TOKYO_GRADE TOKYO_WIND TOKYO_PRES TOKYO_R50_DIR TOKYO_R50_LONG TOKYO_R50_SHORT TOKYO_R30_DIR TOKYO_R30_LONG TOKYO_R30_SHORT TOKYO_LAND CMA_LAT CMA_LON CMA_CAT CMA_WIND CMA_PRES HKO_LAT HKO_LON HKO_CAT HKO_WIND HKO_PRES NEWDELHI_LAT NEWDELHI_LON NEWDELHI_GRADE NEWDELHI_WIND NEWDELHI_PRES NEWDELHI_CI NEWDELHI_DP NEWDELHI_POCI REUNION_LAT REUNION_LON REUNION_TYPE REUNION_WIND REUNION_PRES REUNION_TNUM REUNION_CI REUNION_RMW REUNION_R34_NE REUNION_R34_SE REUNION_R34_SW REUNION_R34_NW REUNION_R50_NE REUNION_R50_SE REUNION_R50_SW REUNION_R50_NW REUNION_R64_NE REUNION_R64_SE REUNION_R64_SW REUNION_R64_NW BOM_LAT BOM_LON BOM_TYPE BOM_WIND BOM_PRES BOM_TNUM BOM_CI BOM_RMW BOM_R34_NE BOM_R34_SE BOM_R34_SW BOM_R34_NW BOM_R50_NE BOM_R50_SE BOM_R50_SW BOM_R50_NW BOM_R64_NE BOM_R64_SE BOM_R64_SW BOM_R64_NW BOM_ROCI BOM_POCI BOM_EYE BOM_POS_METHOD BOM_PRES_METHOD NADI_LAT NADI_LON NADI_CAT NADI_WIND NADI_PRES WELLINGTON_LAT WELLINGTON_LON WELLINGTON_WIND WELLINGTON_PRES DS824_LAT DS824_LON DS824_STAGE DS824_WIND DS824_PRES TD9636_LAT TD9636_LON TD9636_STAGE TD9636_WIND TD9636_PRES TD9635_LAT TD9635_LON TD9635_WIND TD9635_PRES TD9635_ROCI NEUMANN_LAT NEUMANN_LON NEUMANN_CLASS NEUMANN_WIND NEUMANN_PRES MLC_LAT MLC_LON MLC_CLASS MLC_WIND MLC_PRES USA_GUST BOM_GUST BOM_GUST_PER REUNION_GUST REUNION_GUST_PER USA_SEAHGT USA_SEARAD_NE USA_SEARAD_SE USA_SEARAD_SW USA_SEARAD_NW STORM_SPEED STORM_DIR
1926016S15123 1926 4 SI WA NOT_NAMED 1926-01-15 23:00:00 NR -15.0000 122.700 main 169 165 __________O___ -1 -15.0000 122.700 7 5 102
1926016S15123 1926 4 SI WA NOT_NAMED 1926-01-16 00:00:00 NR -15.0168 122.783 main 165 144 __________P___ -1 -15.0168 122.783 7 5 102
1926016S15123 1926 4 SI WA NOT_NAMED 1926-01-16 03:00:00 NR -15.0669 123.033 main 144 130 __________P___ -1 -15.0669 123.033 7 5 102
1926016S15123 1926 4 SI WA NOT_NAMED 1926-01-16 06:00:00 NR -15.1168 123.283 main 130 106 __________P___ -1 -15.1168 123.283 7 5 102
1926016S15123 1926 4 SI WA NOT_NAMED 1926-01-16 09:00:00 NR -15.1667 123.533 main 106 87 __________P___ -1 -15.1667 123.533 7 5 102
1926016S15123 1926 4 SI WA NOT_NAMED 1926-01-16 11:00:00 NR -15.2000 123.700 main 87 78 __________O___ -1 -15.2000 123.700 7 5 102
1926016S15123 1926 4 SI WA NOT_NAMED 1926-01-16 12:00:00 NR -15.2167 123.783 main 78 54 __________P___ -1 -15.2167 123.783 7 5 102
1926016S15123 1926 4 SI WA NOT_NAMED 1926-01-16 15:00:00 NR -15.2667 124.030 main 54 35 __________P___ -1 -15.2667 124.030 7 5 102
1926016S15123 1926 4 SI WA NOT_NAMED 1926-01-16 18:00:00 NR -15.3167 124.263 main 35 15 __________P___ -1 -15.3167 124.263 7 4 103
1926016S15123 1926 4 SI WA NOT_NAMED 1926-01-16 21:00:00 NR -15.3667 124.475 main 15 10 __________P___ -1 -15.3667 124.475 7 4 104
1926016S15123 1926 4 SI WA NOT_NAMED 1926-01-16 23:00:00 NR -15.4000 124.600 main 10 10 __________O___ -1 -15.4000 124.600 7 4 105
1926016S15123 1926 4 SI WA NOT_NAMED 1926-01-17 00:00:00 NR -15.4142 124.659 main 0 0 __________P___ -1 -15.4142 124.659 7 3 105
1926016S15123 1926 4 SI WA NOT_NAMED 1926-01-17 03:00:00 NR -15.4557 124.815 main 0 0 __________P___ -1 -15.4557 124.815 7 3 107
1926016S15123 1926 4 SI WA NOT_NAMED 1926-01-17 06:00:00 NR -15.5006 124.942 main 0 0 __________P___ -1 -15.5006 124.942 7 2 114
1926016S15123 1926 4 SI WA NOT_NAMED 1926-01-17 09:00:00 NR -15.5552 125.044 main 0 0 __________P___ -1 -15.5552 125.044 7 2 123
1926016S15123 1926 4 SI WA NOT_NAMED 1926-01-17 11:00:00 NR -15.6000 125.100 main 0 0 __________O___ -1 -15.6000 125.100 7 2 130
1926016S15123 1926 4 SI WA NOT_NAMED 1926-01-17 12:00:00 NR -15.6278 125.133 main 0 0 __________P___ -1 -15.6278 125.133 7 3 137
1926016S15123 1926 4 SI WA NOT_NAMED 1926-01-17 15:00:00 NR -15.7229 125.217 main 0 0 __________P___ -1 -15.7229 125.217 7 2 145
1926016S15123 1926 4 SI WA NOT_NAMED 1926-01-17 18:00:00 NR -15.8280 125.276 main 0 0 __________P___ -1 -15.8280 125.276 7 2 160
1926016S15123 1926 4 SI WA NOT_NAMED 1926-01-17 21:00:00 NR -15.9338 125.303 main 0 0 __________P___ -1 -15.9338 125.303 7 2 176
1926016S15123 1926 4 SI WA NOT_NAMED 1926-01-17 23:00:00 NR -16.0000 125.300 main 0 0 __________O___ -1 -16.0000 125.300 7 2 0
1926016S15123 1926 4 SI WA NOT_NAMED 1926-01-18 00:00:00 NR -16.0345 125.296 main 0 0 __________P___ -1 -16.0345 125.296 7 2 199
1926016S15123 1926 4 SI WA NOT_NAMED 1926-01-18 03:00:00 NR -16.1350 125.256 main 0 0 __________P___ -1 -16.1350 125.256 7 2 210
1926016S15123 1926 4 SI WA NOT_NAMED 1926-01-18 06:00:00 NR -16.2214 125.182 main 0 0 __________P___ -1 -16.2214 125.182 7 2 229
1926016S15123 1926 4 SI WA NOT_NAMED 1926-01-18 09:00:00 NR -16.2811 125.080 main 0 0 __________P___ -1 -16.2811 125.080 7 2 246
1926016S15123 1926 4 SI WA NOT_NAMED 1926-01-18 11:00:00 NR -16.3000 125.000 main 0 0 __________O___ -1 -16.3000 125.000 7 3 260
1926016S15123 1926 4 SI WA NOT_NAMED 1926-01-18 12:00:00 NR -16.3038 124.944 main 0 0 __________P___ -1 -16.3038 124.944 7 4 273
1926016S15123 1926 4 SI WA NOT_NAMED 1926-01-18 15:00:00 NR -16.2893 124.753 main 0 0 __________P___ -1 -16.2893 124.753 7 4 280
1926016S15123 1926 4 SI WA NOT_NAMED 1926-01-18 18:00:00 NR -16.2404 124.566 main 0 0 __________P___ -1 -16.2404 124.566 7 3 292
1926016S15123 1926 4 SI WA NOT_NAMED 1926-01-18 21:00:00 NR -16.1636 124.433 main 0 0 __________P___ -1 -16.1636 124.433 7 3 311
1926016S15123 1926 4 SI WA NOT_NAMED 1926-01-18 23:00:00 NR -16.1000 124.400 main 11 11 __________O___ -1 -16.1000 124.400 7 2 0
1926016S15123 1926 4 SI WA NOT_NAMED 1926-01-19 00:00:00 NR -16.0561 124.416 main 11 0 __________P___ -1 -16.0561 124.416 7 4 34
1926016S15123 1926 4 SI WA NOT_NAMED 1926-01-19 03:00:00 NR -15.9028 124.537 main 0 0 __________P___ -1 -15.9028 124.537 7 4 45
1926016S15123 1926 4 SI WA NOT_NAMED 1926-01-19 06:00:00 NR -15.7487 124.731 main 0 0 __________P___ -1 -15.7487 124.731 7 5 56
1926016S15123 1926 4 SI WA NOT_NAMED 1926-01-19 09:00:00 NR -15.6342 124.955 main 0 0 __________P___ -1 -15.6342 124.955 7 5 67
1926016S15123 1926 4 SI WA NOT_NAMED 1926-01-19 11:00:00 NR -15.6000 125.100 main 0 0 __________O___ -1 -15.6000 125.100 7 4 81
1926016S15123 1926 4 SI WA NOT_NAMED 1926-01-19 12:00:00 NR -15.5995 125.172 main 0 0 __________P___ -1 -15.5995 125.172 7 4 100
1926016S15123 1926 4 SI WA NOT_NAMED 1926-01-19 15:00:00 NR -15.6496 125.389 main 0 0 __________P___ -1 -15.6496 125.389 7 4 114
1926016S15123 1926 4 SI WA NOT_NAMED 1926-01-19 18:00:00 NR -15.7697 125.575 main 0 0 __________P___ -1 -15.7697 125.575 7 4 136
1926016S15123 1926 4 SI WA NOT_NAMED 1926-01-19 21:00:00 NR -15.9504 125.688 main 0 0 __________P___ -1 -15.9504 125.688 7 4 160
1926016S15123 1926 4 SI WA NOT_NAMED 1926-01-19 23:00:00 NR -16.1000 125.700 main 0 0 __________O___ -1 -16.1000 125.700 7 5 0
1926016S15123 1926 4 SI WA NOT_NAMED 1926-01-20 00:00:00 NR -16.1826 125.682 main 0 0 __________P___ -1 -16.1826 125.682 7 6 202
1926016S15123 1926 4 SI WA NOT_NAMED 1926-01-20 03:00:00 NR -16.4718 125.546 main 0 0 __________P___ -1 -16.4718 125.546 7 7 210
1926016S15123 1926 4 SI WA NOT_NAMED 1926-01-20 06:00:00 NR -16.7934 125.315 main 0 0 __________P___ -1 -16.7934 125.315 7 8 218
1926016S15123 1926 4 SI WA NOT_NAMED 1926-01-20 09:00:00 NR -17.1101 125.018 main 0 0 __________P___ -1 -17.1101 125.018 7 9 224
1926016S15123 1926 4 SI WA NOT_NAMED 1926-01-20 11:00:00 NR -17.3000 124.800 main 0 0 __________O___ -1 -17.3000 124.800 7 8 227
1926016S15123 1926 4 SI WA NOT_NAMED 1926-01-20 12:00:00 NR -17.3948 124.703 main 0 0 __________P___ -1 -17.3948 124.703 7 8 228
1926016S15123 1926 4 SI WA NOT_NAMED 1926-01-20 15:00:00 NR -17.6597 124.385 main 0 0 __________P___ -1 -17.6597 124.385 7 8 233
1926016S15123 1926 4 SI WA NOT_NAMED 1926-01-20 18:00:00 NR -17.8688 124.033 main 0 0 __________P___ -1 -17.8688 124.033 7 8 245
1926016S15123 1926 4 SI WA NOT_NAMED 1926-01-20 21:00:00 NR -17.9877 123.659 main 0 0 __________P___ -1 -17.9877 123.659 7 7 258
1926016S15123 1926 4 SI WA NOT_NAMED 1926-01-20 23:00:00 NR -18.0000 123.400 main 0 0 __________O___ -1 -18.0000 123.400 7 8 269
1926016S15123 1926 4 SI WA NOT_NAMED 1926-01-21 00:00:00 NR -17.9936 123.254 main 0 0 __________P___ -1 -17.9936 123.254 7 9 281
1926016S15123 1926 4 SI WA NOT_NAMED 1926-01-21 03:00:00 NR -17.8922 122.800 main 0 0 __________P___ -1 -17.8922 122.800 7 9 290
1926016S15123 1926 4 SI WA NOT_NAMED 1926-01-21 06:00:00 NR -17.6771 122.359 main 0 0 __________P___ -1 -17.6771 122.359 7 9 304
1926016S15123 1926 4 SI WA NOT_NAMED 1926-01-21 09:00:00 NR -17.3608 121.985 main 21 21 __________P___ -1 -17.3608 121.985 7 9 317
1926016S15123 1926 4 SI WA NOT_NAMED 1926-01-21 11:00:00 NR -17.1000 121.800 main 48 48 __________O___ -1 -17.1000 121.800 7 10 329
1926016S15123 1926 4 SI WA NOT_NAMED 1926-01-21 12:00:00 NR -16.9478 121.725 main 67 67 __________P___ -1 -16.9478 121.725 7 11 343
1926016S15123 1926 4 SI WA NOT_NAMED 1926-01-21 15:00:00 NR -16.4181 121.578 main 108 108 __________P___ -1 -16.4181 121.578 7 11 351
1926016S15123 1926 4 SI WA NOT_NAMED 1926-01-21 18:00:00 NR -15.8421 121.539 main 162 162 __________P___ -1 -15.8421 121.539 7 11 1
1926016S15123 1926 4 SI WA NOT_NAMED 1926-01-21 21:00:00 NR -15.3012 121.603 main 193 193 __________P___ -1 -15.3012 121.603 7 10 10
1926016S15123 1926 4 SI WA NOT_NAMED 1926-01-21 23:00:00 NR -15.0000 121.700 main 211 211 __________O___ -1 -15.0000 121.700 7 9 19
1926016S15123 1926 4 SI WA NOT_NAMED 1926-01-22 00:00:00 NR -14.8788 121.758 main 214 214 __________P___ -1 -14.8788 121.758 7 8 35
1926016S15123 1926 4 SI WA NOT_NAMED 1926-01-22 03:00:00 NR -14.5858 122.004 main 233 233 __________P___ -1 -14.5858 122.004 7 7 49
1926016S15123 1926 4 SI WA NOT_NAMED 1926-01-22 06:00:00 NR -14.3959 122.323 main 243 233 __________P___ -1 -14.3959 122.323 7 7 67
1926016S15123 1926 4 SI WA NOT_NAMED 1926-01-22 09:00:00 NR -14.3059 122.672 main 233 217 __________P___ -1 -14.3059 122.672 7 7 80
1926016S15123 1926 4 SI WA NOT_NAMED 1926-01-22 11:00:00 NR -14.3000 122.900 main 217 209 __________O___ -1 -14.3000 122.900 7 7 91
1926016S15123 1926 4 SI WA NOT_NAMED 1926-01-22 12:00:00 NR -14.3089 123.014 main 209 178 __________P___ -1 -14.3089 123.014 7 7 104
1926016S15123 1926 4 SI WA NOT_NAMED 1926-01-22 15:00:00 NR -14.4083 123.360 main 172 134 __________P___ -1 -14.4083 123.360 7 7 113
1926016S15123 1926 4 SI WA NOT_NAMED 1926-01-22 18:00:00 NR -14.5801 123.675 main 134 104 __________P___ -1 -14.5801 123.675 7 6 125
1926016S15123 1926 4 SI WA NOT_NAMED 1926-01-22 21:00:00 NR -14.7774 123.910 main 104 89 __________P___ -1 -14.7774 123.910 7 5 136
1926016S15123 1926 4 SI WA NOT_NAMED 1926-01-22 23:00:00 NR -14.9000 124.000 main 89 89 __________O___ -1 -14.9000 124.000 7 4 146
1926016S15123 1926 4 SI WA NOT_NAMED 1926-01-23 00:00:00 NR -14.9387 124.015 main 89 79 __________P___ -1 -14.9387 124.015 7 2 194
1926016S15123 1926 4 SI WA NOT_NAMED 1926-01-23 03:00:00 NR -15.0435 123.971 main 79 70 __________P___ -1 -15.0435 123.971 7 3 221
1926016S15123 1926 4 SI WA NOT_NAMED 1926-01-23 06:00:00 NR -15.1385 123.830 main 85 78 __________P___ -1 -15.1385 123.830 7 4 240
1926016S15123 1926 4 SI WA NOT_NAMED 1926-01-23 09:00:00 NR -15.2328 123.637 main 96 92 __________P___ -1 -15.2328 123.637 7 4 243
1926016S15123 1926 4 SI WA NOT_NAMED 1926-01-23 11:00:00 NR -15.3000 123.500 main 102 102 __________O___ -1 -15.3000 123.500 7 4 240
1926016S15123 1926 4 SI WA NOT_NAMED 1926-01-23 12:00:00 NR -15.3433 123.441 main 105 89 __________P___ -1 -15.3433 123.441 7 5 233
1926016S15123 1926 4 SI WA NOT_NAMED 1926-01-23 15:00:00 NR -15.4806 123.250 main 89 85 __________P___ -1 -15.4806 123.250 7 5 233
1926016S15123 1926 4 SI WA NOT_NAMED 1926-01-23 18:00:00 NR -15.6171 123.057 main 92 89 __________P___ -1 -15.6171 123.057 7 4 234
1926016S15123 1926 4 SI WA NOT_NAMED 1926-01-23 21:00:00 NR -15.7370 122.888 main 89 78 __________P___ -1 -15.7370 122.888 7 4 233
1926016S15123 1926 4 SI WA NOT_NAMED 1926-01-23 23:00:00 NR -15.8000 122.800 main 79 79 __________O___ -1 -15.8000 122.800 7 3 232
1926016S15123 1926 4 SI WA NOT_NAMED 1926-01-24 00:00:00 NR -15.8205 122.773 main 79 70 __________P___ -1 -15.8205 122.773 7 1 228
1926016S15123 1926 4 SI WA NOT_NAMED 1926-01-24 03:00:00 NR -15.8594 122.725 main 70 70 __________P___ -1 -15.8594 122.725 7 1 225
1926016S15123 1926 4 SI WA NOT_NAMED 1926-01-24 06:00:00 NR -15.8767 122.710 main 70 70 __________P___ -1 -15.8767 122.710 7 0 224
1926016S15123 1926 4 SI WA NOT_NAMED 1926-01-24 09:00:00 NR -15.8881 122.707 main 70 70 __________P___ -1 -15.8881 122.707 7 0 0
1926016S15123 1926 4 SI WA NOT_NAMED 1926-01-24 11:00:00 NR -15.9000 122.700 main 70 70 __________O___ -1 -15.9000 122.700 7 0 0
1926016S15123 1926 4 SI WA NOT_NAMED 1926-01-24 12:00:00 NR -15.8948 122.690 main 70 70 __________P___ -1 -15.8948 122.690 7 1 305
1926016S15123 1926 4 SI WA NOT_NAMED 1926-01-24 15:00:00 NR -15.8773 122.657 main 70 70 __________P___ -1 -15.8773 122.657 7 1 274
1926016S15123 1926 4 SI WA NOT_NAMED 1926-01-24 18:00:00 NR -15.8905 122.613 main 74 64 __________P___ -1 -15.8905 122.613 7 1 225
1926016S15123 1926 4 SI WA NOT_NAMED 1926-01-24 21:00:00 NR -15.9784 122.553 main 64 61 __________P___ -1 -15.9784 122.553 7 3 208
1926016S15123 1926 4 SI WA NOT_NAMED 1926-01-24 23:00:00 NR -16.1000 122.500 main 61 54 __________O___ -1 -16.1000 122.500 7 5 203
1926016S15123 1926 4 SI WA NOT_NAMED 1926-01-25 00:00:00 NR -16.1914 122.461 main 54 39 __________P___ -1 -16.1914 122.461 7 7 200
1926016S15123 1926 4 SI WA NOT_NAMED 1926-01-25 03:00:00 NR -16.5483 122.325 main 48 15 __________P___ -1 -16.5483 122.325 7 9 199
1926016S15123 1926 4 SI WA NOT_NAMED 1926-01-25 06:00:00 NR -16.9926 122.181 main 15 10 __________P___ -1 -16.9926 122.181 7 10 195
1926016S15123 1926 4 SI WA NOT_NAMED 1926-01-25 09:00:00 NR -17.4774 122.057 main 10 10 __________P___ -1 -17.4774 122.057 7 10 192
1926016S15123 1926 4 SI WA NOT_NAMED 1926-01-25 11:00:00 NR -17.8000 122.000 main 21 21 __________O___ -1 -17.8000 122.000 7 10 188
1926016S15123 1926 4 SI WA NOT_NAMED 1926-01-25 12:00:00 NR -17.9527 121.987 main 21 0 __________P___ -1 -17.9527 121.987 7 9 180
1926016S15123 1926 4 SI WA NOT_NAMED 1926-01-25 15:00:00 NR -18.4155 121.980 main 0 0 __________P___ -1 -18.4155 121.980 7 9 179
1926016S15123 1926 4 SI WA NOT_NAMED 1926-01-25 18:00:00 NR -18.8633 122.010 main 0 0 __________P___ -1 -18.8633 122.010 7 9 175
1926016S15123 1926 4 SI WA NOT_NAMED 1926-01-25 21:00:00 NR -19.2680 122.062 main 0 0 __________P___ -1 -19.2680 122.062 7 8 172
1926016S15123 1926 4 SI WA NOT_NAMED 1926-01-25 23:00:00 NR -19.5000 122.100 main 0 0 __________O___ -1 -19.5000 122.100 7 7 173
1926016S15123 1926 4 SI WA NOT_NAMED 1926-01-26 00:00:00 NR -19.5968 122.108 main 0 0 __________P___ -1 -19.5968 122.108 7 5 173
1926016S15123 1926 4 SI WA NOT_NAMED 1926-01-26 03:00:00 NR -19.8377 122.137 main 0 0 __________P___ -1 -19.8377 122.137 7 4 171
1926016S15123 1926 4 SI WA NOT_NAMED 1926-01-26 06:00:00 NR -20.0261 122.178 main 0 0 __________P___ -1 -20.0261 122.178 7 4 165
1926016S15123 1926 4 SI WA NOT_NAMED 1926-01-26 09:00:00 NR -20.1902 122.241 main 0 0 __________P___ -1 -20.1902 122.241 7 4 158
1926016S15123 1926 4 SI WA NOT_NAMED 1926-01-26 11:00:00 NR -20.3000 122.300 main 0 0 __________O___ -1 -20.3000 122.300 7 4 152
1926016S15123 1926 4 SI WA NOT_NAMED 1926-01-26 12:00:00 NR -20.3579 122.335 main 0 0 __________P___ -1 -20.3579 122.335 7 4 148
1926016S15123 1926 4 SI WA NOT_NAMED 1926-01-26 15:00:00 NR -20.5446 122.463 main 0 0 __________P___ -1 -20.5446 122.463 7 5 146
1926016S15123 1926 4 SI WA NOT_NAMED 1926-01-26 18:00:00 NR -20.7462 122.615 main 0 0 __________P___ -1 -20.7462 122.615 7 5 144
1926016S15123 1926 4 SI WA NOT_NAMED 1926-01-26 21:00:00 NR -20.9571 122.783 main 0 0 __________P___ -1 -20.9571 122.783 7 5 143
1926016S15123 1926 4 SI WA NOT_NAMED 1926-01-26 23:00:00 NR -21.1000 122.900 main 0 __________O___ -1 -21.1000 122.900 7 5 142

IBTrACS Databaseについて

本データベースは、米国NOAAが公開する1842年以降の世界の熱帯低気圧のベストトラックデータアーカイブInternational Best Track Archive for Climate Stewardship (IBTrACS)を、ウェブで閲覧しやすい形式に変換したものです。

最終更新日:2021-12-03